createdAt,value
2022-11-29T00:02:44.694Z,101203.59
2022-11-29T00:07:46.940Z,101204.41
2022-11-29T00:12:49.486Z,101214.72
2022-11-29T00:17:53.035Z,101214.72
2022-11-29T00:22:55.236Z,101225.13
2022-11-29T00:27:57.168Z,101222.56
2022-11-29T00:33:00.723Z,101212.97
2022-11-29T00:38:02.817Z,101221.66
2022-11-29T00:43:04.938Z,101216.50
2022-11-29T00:48:08.256Z,101216.50
2022-11-29T00:53:10.379Z,101215.69
2022-11-29T00:58:12.404Z,101211.34
2022-11-29T01:03:16.420Z,101200.78
2022-11-29T01:08:18.556Z,101210.34
2022-11-29T01:13:20.626Z,101209.41
2022-11-29T01:18:24.278Z,101215.53
2022-11-29T01:23:26.843Z,101212.97
2022-11-29T01:28:29.775Z,101209.41
2022-11-29T01:33:33.444Z,101216.41
2022-11-29T01:38:36.470Z,101210.38
2022-11-29T01:43:55.324Z,101219.03
2022-11-29T01:49:03.838Z,101207.81
2022-11-29T01:54:06.624Z,101213.06
2022-11-29T01:59:12.973Z,101217.53
2022-11-29T02:04:18.644Z,101211.34
2022-11-29T02:09:22.994Z,101208.16
2022-11-29T02:14:40.401Z,101202.00
2022-11-29T02:20:08.853Z,101201.91
2022-11-29T02:25:31.245Z,101212.47
2022-11-29T02:30:53.965Z,101218.59
2022-11-29T02:36:24.324Z,101217.72
2022-11-29T02:41:44.699Z,101225.53
2022-11-29T02:46:57.041Z,101222.88
2022-11-29T02:52:02.606Z,101230.63
2022-11-29T02:57:16.204Z,101223.59
2022-11-29T03:02:24.933Z,101229.66
2022-11-29T03:07:39.333Z,101230.44
2022-11-29T03:12:46.635Z,101228.59
2022-11-29T03:18:04.152Z,101234.03
2022-11-29T03:23:22.198Z,101241.88
2022-11-29T03:28:31.334Z,101243.66
2022-11-29T03:33:45.570Z,101252.31
2022-11-29T03:38:53.110Z,101255.00
2022-11-29T03:44:00.300Z,101256.75
2022-11-29T03:49:06.720Z,101252.38
2022-11-29T03:54:15.348Z,101255.25
2022-11-29T03:59:30.182Z,101255.06
2022-11-29T04:05:05.056Z,101255.22
2022-11-29T04:10:20.804Z,101253.31
2022-11-29T04:15:57.443Z,101252.44
2022-11-29T04:21:30.576Z,101260.31
2022-11-29T04:26:57.936Z,101262.16
2022-11-29T04:32:47.536Z,101265.50
2022-11-29T04:38:16.662Z,101266.63
2022-11-29T04:43:49.934Z,101268.84
2022-11-29T04:49:06.441Z,101264.56
2022-11-29T04:54:20.906Z,101277.63
2022-11-29T04:59:30.844Z,101280.34
2022-11-29T05:04:41.052Z,101276.03
2022-11-29T05:09:58.838Z,101275.97
2022-11-29T05:15:49.382Z,101287.34
2022-11-29T05:20:58.067Z,101288.97
2022-11-29T05:26:05.522Z,101296.84
2022-11-29T05:31:25.189Z,101299.31
2022-11-29T05:36:40.038Z,101309.84
2022-11-29T05:42:05.194Z,101309.03
2022-11-29T05:47:09.800Z,101311.72
2022-11-29T05:52:36.512Z,101311.69
2022-11-29T05:57:46.665Z,101320.34
2022-11-29T06:02:58.613Z,101325.63
2022-11-29T06:08:07.125Z,101332.72
2022-11-29T06:13:20.838Z,101342.34
2022-11-29T06:18:38.095Z,101337.84
2022-11-29T06:23:55.750Z,101347.75
2022-11-29T06:29:17.921Z,101361.72
2022-11-29T06:34:31.043Z,101356.53
2022-11-29T06:39:33.529Z,101362.72
2022-11-29T06:44:36.208Z,101369.75
2022-11-29T06:49:47.217Z,101371.56
2022-11-29T06:55:03.091Z,101379.44
2022-11-29T07:00:12.752Z,101377.97
2022-11-29T07:05:23.788Z,101383.22
2022-11-29T07:10:27.644Z,101386.69
2022-11-29T07:15:30.172Z,101385.00
2022-11-29T07:20:41.450Z,101392.28
2022-11-29T07:25:53.090Z,101385.16
2022-11-29T07:31:05.382Z,101402.69
2022-11-29T07:36:14.823Z,101398.69
2022-11-29T07:41:23.287Z,101390.75
2022-11-29T07:46:25.579Z,101395.19
2022-11-29T07:51:28.831Z,101404.97
2022-11-29T07:56:30.854Z,101404.97
2022-11-29T08:01:33.044Z,101415.56
2022-11-29T08:06:36.480Z,101412.06
2022-11-29T08:11:39.631Z,101425.38
2022-11-29T08:16:41.740Z,101433.31
2022-11-29T08:21:45.511Z,101438.03
2022-11-29T08:26:47.664Z,101443.38
2022-11-29T08:31:51.184Z,101445.81
2022-11-29T08:36:56.291Z,101441.88
2022-11-29T08:41:58.417Z,101441.78
2022-11-29T08:47:00.753Z,101438.91
2022-11-29T08:52:04.149Z,101438.81
2022-11-29T08:57:38.147Z,101443.78
2022-11-29T09:02:27.995Z,101442.59
2022-11-29T09:07:31.659Z,101445.25
2022-11-29T09:12:34.917Z,101445.63
2022-11-29T09:17:37.263Z,101451.75
2022-11-29T09:22:40.286Z,101465.22
2022-11-29T09:27:45.140Z,101457.88
2022-11-29T09:32:47.297Z,101459.09
2022-11-29T09:37:51.034Z,101465.53
2022-11-29T09:43:00.319Z,101466.97
2022-11-29T09:48:37.267Z,101465.31
2022-11-29T09:53:53.596Z,101464.31
2022-11-29T09:58:59.542Z,101466.03
2022-11-29T10:04:04.876Z,101473.34
2022-11-29T10:09:17.238Z,101476.19
2022-11-29T10:14:22.626Z,101469.19
2022-11-29T10:19:30.944Z,101482.50
2022-11-29T10:24:34.948Z,101480.72
2022-11-29T10:29:37.072Z,101473.91
2022-11-29T10:34:40.191Z,101474.25
2022-11-29T10:39:47.253Z,101477.75
2022-11-29T10:44:49.032Z,101482.84
2022-11-29T10:49:51.440Z,101488.88
2022-11-29T10:54:58.952Z,101491.19
2022-11-29T11:00:05.066Z,101490.28
2022-11-29T11:05:14.590Z,101494.97
2022-11-29T11:10:27.667Z,101488.06
2022-11-29T11:15:31.352Z,101487.78
2022-11-29T11:20:35.875Z,101492.19
2022-11-29T11:25:40.811Z,101493.16
2022-11-29T11:30:51.346Z,101485.97
2022-11-29T11:36:09.444Z,101489.75
2022-11-29T11:41:23.903Z,101493.16
2022-11-29T11:46:47.306Z,101495.97
2022-11-29T11:51:50.456Z,101483.97
2022-11-29T11:56:53.796Z,101490.19
2022-11-29T12:01:55.951Z,101495.41
2022-11-29T12:07:00.667Z,101495.50
2022-11-29T12:12:15.228Z,101497.97
2022-11-29T12:17:26.627Z,101503.28
2022-11-29T12:22:35.780Z,101515.47
2022-11-29T12:27:39.391Z,101502.34
2022-11-29T12:33:03.734Z,101511.38
2022-11-29T12:38:18.674Z,101518.47
2022-11-29T12:43:32.114Z,101515.72
2022-11-29T12:48:43.361Z,101525.38
2022-11-29T12:53:59.422Z,101526.63
2022-11-29T12:59:15.412Z,101543.88
2022-11-29T13:04:25.424Z,101542.88
2022-11-29T13:09:46.654Z,101548.13
2022-11-29T13:14:57.572Z,101553.44
2022-11-29T13:20:04.148Z,101549.97
2022-11-29T13:25:15.346Z,101544.38
2022-11-29T13:30:19.277Z,101561.88
2022-11-29T13:35:25.229Z,101553.50
2022-11-29T13:40:36.298Z,101558.97
2022-11-29T13:45:46.904Z,101568.63
2022-11-29T13:50:49.512Z,101556.16
2022-11-29T13:55:55.822Z,101571.81
2022-11-29T14:01:02.309Z,101576.91
2022-11-29T14:06:31.639Z,101576.75
2022-11-29T14:11:44.447Z,101581.00
2022-11-29T14:16:50.337Z,101578.59
2022-11-29T14:22:27.245Z,101589.06
2022-11-29T14:27:55.933Z,101585.28
2022-11-29T14:33:04.913Z,101590.34
2022-11-29T14:38:14.334Z,101585.09
2022-11-29T14:43:21.757Z,101594.81
2022-11-29T14:48:27.034Z,101595.69
2022-11-29T14:53:33.973Z,101598.09
2022-11-29T14:58:35.897Z,101602.41
2022-11-29T15:03:46.126Z,101609.22
2022-11-29T15:08:54.377Z,101608.34
2022-11-29T15:14:04.222Z,101604.03
2022-11-29T15:19:33.778Z,101604.03
2022-11-29T15:24:50.596Z,101610.16
2022-11-29T15:29:52.692Z,101617.94
2022-11-29T15:34:56.747Z,101620.72
2022-11-29T15:40:03.831Z,101626.69
2022-11-29T15:45:28.380Z,101641.72
2022-11-29T15:50:33.665Z,101633.69
2022-11-29T15:55:35.756Z,101646.00
2022-11-29T16:00:38.287Z,101652.06
2022-11-29T16:05:42.207Z,101651.06
2022-11-29T16:10:46.973Z,101651.06
2022-11-29T16:15:48.755Z,101658.28
2022-11-29T16:21:00.127Z,101663.47
2022-11-29T16:26:11.621Z,101672.47
2022-11-29T16:31:18.091Z,101649.97
2022-11-29T16:36:25.393Z,101678.16
2022-11-29T16:41:32.270Z,101679.31
2022-11-29T16:46:36.571Z,101676.56
2022-11-29T16:51:46.180Z,101681.72
2022-11-29T16:56:48.444Z,101679.16
2022-11-29T17:01:51.224Z,101682.59
2022-11-29T17:06:55.720Z,101685.25
2022-11-29T17:11:58.500Z,101693.97
2022-11-29T17:17:03.122Z,101691.19
2022-11-29T17:22:06.848Z,101694.81
2022-11-29T17:27:08.929Z,101700.00
2022-11-29T17:32:10.982Z,101703.47
2022-11-29T17:37:14.276Z,101701.69
2022-11-29T17:42:16.025Z,101703.50
2022-11-29T17:47:17.744Z,101705.34
2022-11-29T17:52:20.900Z,101718.41
2022-11-29T17:57:22.900Z,101712.13
2022-11-29T18:02:25.032Z,101717.38
2022-11-29T18:07:28.436Z,101723.59
2022-11-29T18:12:30.737Z,101718.19
2022-11-29T18:17:32.760Z,101726.28
2022-11-29T18:22:36.133Z,101729.78
2022-11-29T18:27:38.025Z,101738.66
2022-11-29T18:32:40.002Z,101736.00
2022-11-29T18:38:13.618Z,101742.13
2022-11-29T18:43:05.633Z,101749.00
2022-11-29T18:48:07.702Z,101747.31
2022-11-29T18:53:11.323Z,101751.66
2022-11-29T18:58:13.766Z,101754.31
2022-11-29T19:03:16.053Z,101750.78
2022-11-29T19:08:19.547Z,101749.72
2022-11-29T19:13:21.951Z,101747.09
2022-11-29T19:18:23.917Z,101752.56
2022-11-29T19:23:27.276Z,101754.25
2022-11-29T19:28:29.257Z,101750.50
2022-11-29T19:33:31.297Z,101753.22
2022-11-29T19:38:35.948Z,101754.97
2022-11-29T19:43:38.259Z,101752.63
2022-11-29T19:48:40.760Z,101756.03
2022-11-29T19:53:45.250Z,101755.22
2022-11-29T19:58:47.534Z,101756.03
2022-11-29T20:03:50.421Z,101762.16
2022-11-29T20:08:54.409Z,101762.38
2022-11-29T20:13:58.452Z,101770.97
2022-11-29T20:19:01.356Z,101776.34
2022-11-29T20:24:07.379Z,101773.66
2022-11-29T20:29:10.541Z,101781.78
2022-11-29T20:34:14.728Z,101772.88
2022-11-29T20:39:31.007Z,101778.22
2022-11-29T20:44:37.560Z,101777.22
2022-11-29T20:49:40.471Z,101789.53
2022-11-29T20:54:43.834Z,101786.03
2022-11-29T20:59:46.275Z,101789.63
2022-11-29T21:04:54.219Z,101800.16
2022-11-29T21:10:01.642Z,101797.41
2022-11-29T21:15:05.320Z,101805.41
2022-11-29T21:20:09.080Z,101796.59
2022-11-29T21:25:20.545Z,101803.44
2022-11-29T21:30:24.678Z,101808.88
2022-11-29T21:35:26.497Z,101817.56
2022-11-29T21:40:31.271Z,101818.34
2022-11-29T21:45:32.910Z,101808.97
2022-11-29T21:50:34.626Z,101817.50
2022-11-29T21:55:38.083Z,101828.03
2022-11-29T22:00:39.771Z,101824.63
2022-11-29T22:05:42.076Z,101822.81
2022-11-29T22:10:45.548Z,101820.09
2022-11-29T22:15:47.795Z,101823.59
2022-11-29T22:20:49.740Z,101831.47
2022-11-29T22:25:52.746Z,101830.59
2022-11-29T22:31:02.150Z,101829.78
2022-11-29T22:36:05.818Z,101843.69
2022-11-29T22:41:10.911Z,101827.84
2022-11-29T22:46:16.141Z,101843.69
2022-11-29T22:51:20.028Z,101841.06
2022-11-29T22:56:24.250Z,101835.78
2022-11-29T23:01:27.910Z,101843.88
2022-11-29T23:06:32.386Z,101841.22
2022-11-29T23:11:35.838Z,101845.56
2022-11-29T23:16:38.227Z,101845.66
2022-11-29T23:21:41.218Z,101842.09
2022-11-29T23:26:46.519Z,101840.94
2022-11-29T23:31:49.040Z,101838.53
2022-11-29T23:36:53.173Z,101841.00
2022-11-29T23:41:56.814Z,101846.31
2022-11-29T23:46:58.813Z,101846.47
2022-11-29T23:52:00.436Z,101849.03
2022-11-29T23:57:05.356Z,101841.16
